sensor_id;sensor_type;location;lat;lon;timestamp;pressure;altitude;pressure_sealevel;temperature;humidity
54666;BME280;40566;50.006;36.180;2023-07-20T00:02:04;99218.28;;;17.91;64.49
54666;BME280;40566;50.006;36.180;2023-07-20T00:07:06;99225.09;;;17.93;64.52
54666;BME280;40566;50.006;36.180;2023-07-20T00:12:07;99217.53;;;17.89;64.87
54666;BME280;40566;50.006;36.180;2023-07-20T00:17:07;99219.63;;;17.83;64.90
54666;BME280;40566;50.006;36.180;2023-07-20T00:22:08;99214.78;;;17.77;65.08
54666;BME280;40566;50.006;36.180;2023-07-20T00:27:09;99229.94;;;17.72;65.11
54666;BME280;40566;50.006;36.180;2023-07-20T00:32:09;99232.22;;;17.64;65.58
54666;BME280;40566;50.006;36.180;2023-07-20T00:37:10;99230.75;;;17.60;65.50
54666;BME280;40566;50.006;36.180;2023-07-20T00:42:10;99240.00;;;17.51;65.82
54666;BME280;40566;50.006;36.180;2023-07-20T00:47:11;99235.81;;;17.49;65.58
54666;BME280;40566;50.006;36.180;2023-07-20T00:52:13;99231.72;;;17.44;66.23
54666;BME280;40566;50.006;36.180;2023-07-20T00:57:15;99234.53;;;17.41;65.83
54666;BME280;40566;50.006;36.180;2023-07-20T01:02:16;99243.72;;;17.34;66.35
54666;BME280;40566;50.006;36.180;2023-07-20T01:07:36;99232.28;;;17.22;66.69
54666;BME280;40566;50.006;36.180;2023-07-20T01:12:42;99263.06;;;17.17;67.57
54666;BME280;40566;50.006;36.180;2023-07-20T01:17:43;99262.53;;;17.12;68.06
54666;BME280;40566;50.006;36.180;2023-07-20T01:33:24;99243.78;;;17.05;67.55
54666;BME280;40566;50.006;36.180;2023-07-20T01:38:26;99256.41;;;16.99;67.44
54666;BME280;40566;50.006;36.180;2023-07-20T01:43:27;99247.06;;;16.95;67.49
54666;BME280;40566;50.006;36.180;2023-07-20T01:48:28;99253.59;;;16.88;67.77
54666;BME280;40566;50.006;36.180;2023-07-20T01:53:28;99255.72;;;16.81;67.88
54666;BME280;40566;50.006;36.180;2023-07-20T01:58:29;99263.94;;;16.75;68.18
54666;BME280;40566;50.006;36.180;2023-07-20T02:03:30;99258.16;;;16.70;68.21
54666;BME280;40566;50.006;36.180;2023-07-20T02:08:30;99264.31;;;16.69;68.28
54666;BME280;40566;50.006;36.180;2023-07-20T02:13:31;99263.66;;;16.65;68.54
54666;BME280;40566;50.006;36.180;2023-07-20T02:18:32;99266.44;;;16.62;68.08
54666;BME280;40566;50.006;36.180;2023-07-20T02:23:33;99272.72;;;16.59;68.57
54666;BME280;40566;50.006;36.180;2023-07-20T02:28:33;99278.31;;;16.53;68.47
54666;BME280;40566;50.006;36.180;2023-07-20T02:33:34;99277.25;;;16.56;68.69
54666;BME280;40566;50.006;36.180;2023-07-20T02:38:35;99286.69;;;16.58;68.76
54666;BME280;40566;50.006;36.180;2023-07-20T02:43:35;99283.69;;;16.64;68.54
54666;BME280;40566;50.006;36.180;2023-07-20T02:48:36;99280.75;;;16.71;68.79
54666;BME280;40566;50.006;36.180;2023-07-20T02:53:37;99288.81;;;16.80;68.95
54666;BME280;40566;50.006;36.180;2023-07-20T02:58:40;99285.69;;;16.90;68.74
54666;BME280;40566;50.006;36.180;2023-07-20T03:03:43;99290.66;;;16.94;69.04
54666;BME280;40566;50.006;36.180;2023-07-20T03:08:46;99293.72;;;17.01;69.41
54666;BME280;40566;50.006;36.180;2023-07-20T03:13:52;99295.03;;;17.08;69.44
54666;BME280;40566;50.006;36.180;2023-07-20T03:18:52;99293.69;;;17.15;69.12
54666;BME280;40566;50.006;36.180;2023-07-20T03:23:53;99297.69;;;17.21;69.40
54666;BME280;40566;50.006;36.180;2023-07-20T03:28:54;99305.16;;;17.27;69.41
54666;BME280;40566;50.006;36.180;2023-07-20T03:33:54;99303.63;;;17.37;69.48
54666;BME280;40566;50.006;36.180;2023-07-20T03:38:55;99305.69;;;17.47;69.37
54666;BME280;40566;50.006;36.180;2023-07-20T03:43:55;99310.72;;;17.50;68.58
54666;BME280;40566;50.006;36.180;2023-07-20T03:48:56;99313.13;;;17.53;69.24
54666;BME280;40566;50.006;36.180;2023-07-20T03:53:56;99314.22;;;17.63;68.83
54666;BME280;40566;50.006;36.180;2023-07-20T03:58:57;99316.75;;;17.64;68.32
54666;BME280;40566;50.006;36.180;2023-07-20T04:03:57;99323.19;;;17.73;68.49
54666;BME280;40566;50.006;36.180;2023-07-20T04:08:58;99329.13;;;17.90;67.58
54666;BME280;40566;50.006;36.180;2023-07-20T04:13:58;99324.03;;;18.01;67.75
54666;BME280;40566;50.006;36.180;2023-07-20T04:18:59;99327.19;;;18.06;67.26
54666;BME280;40566;50.006;36.180;2023-07-20T04:24:00;99349.75;;;18.21;66.91
54666;BME280;40566;50.006;36.180;2023-07-20T04:29:00;99352.19;;;18.37;66.17
54666;BME280;40566;50.006;36.180;2023-07-20T04:34:01;99343.81;;;18.45;65.35
54666;BME280;40566;50.006;36.180;2023-07-20T04:39:03;99352.63;;;18.57;64.88
54666;BME280;40566;50.006;36.180;2023-07-20T04:44:04;99345.91;;;18.66;64.59
54666;BME280;40566;50.006;36.180;2023-07-20T04:49:05;99349.50;;;18.77;63.99
54666;BME280;40566;50.006;36.180;2023-07-20T04:54:06;99338.81;;;18.93;63.18
54666;BME280;40566;50.006;36.180;2023-07-20T04:59:06;99346.78;;;19.05;63.17
54666;BME280;40566;50.006;36.180;2023-07-20T05:04:07;99342.16;;;19.21;61.61
54666;BME280;40566;50.006;36.180;2023-07-20T05:09:08;99347.28;;;19.35;60.92
54666;BME280;40566;50.006;36.180;2023-07-20T05:14:08;99349.03;;;19.48;60.11
54666;BME280;40566;50.006;36.180;2023-07-20T05:19:09;99349.31;;;19.56;59.42
54666;BME280;40566;50.006;36.180;2023-07-20T05:24:10;99346.78;;;19.67;59.06
54666;BME280;40566;50.006;36.180;2023-07-20T05:29:10;99349.34;;;19.80;58.70
54666;BME280;40566;50.006;36.180;2023-07-20T05:34:11;99342.63;;;19.89;58.50
54666;BME280;40566;50.006;36.180;2023-07-20T05:39:11;99344.38;;;19.88;58.42
54666;BME280;40566;50.006;36.180;2023-07-20T05:44:12;99330.97;;;20.04;57.70
54666;BME280;40566;50.006;36.180;2023-07-20T05:49:13;99331.75;;;20.17;56.67
54666;BME280;40566;50.006;36.180;2023-07-20T05:54:16;99326.03;;;20.24;55.33
54666;BME280;40566;50.006;36.180;2023-07-20T05:59:17;99321.75;;;20.34;55.21
54666;BME280;40566;50.006;36.180;2023-07-20T06:04:18;99320.00;;;20.46;54.10
54666;BME280;40566;50.006;36.180;2023-07-20T06:09:18;99312.88;;;20.59;52.75
54666;BME280;40566;50.006;36.180;2023-07-20T06:14:19;99310.41;;;20.69;52.85
54666;BME280;40566;50.006;36.180;2023-07-20T06:19:20;99304.06;;;20.83;52.79
54666;BME280;40566;50.006;36.180;2023-07-20T06:24:23;99306.94;;;20.91;52.18
54666;BME280;40566;50.006;36.180;2023-07-20T06:29:23;99303.13;;;20.95;52.19
54666;BME280;40566;50.006;36.180;2023-07-20T06:34:24;99306.47;;;21.08;51.39
54666;BME280;40566;50.006;36.180;2023-07-20T06:39:25;99302.16;;;21.18;51.37
54666;BME280;40566;50.006;36.180;2023-07-20T06:44:25;99310.84;;;21.30;50.76
54666;BME280;40566;50.006;36.180;2023-07-20T06:49:27;99303.44;;;21.35;50.48
54666;BME280;40566;50.006;36.180;2023-07-20T06:54:28;99307.03;;;21.46;50.96
54666;BME280;40566;50.006;36.180;2023-07-20T06:59:28;99301.38;;;21.62;50.97
54666;BME280;40566;50.006;36.180;2023-07-20T07:04:29;99298.00;;;21.71;50.73
54666;BME280;40566;50.006;36.180;2023-07-20T07:09:30;99297.81;;;21.84;50.64
54666;BME280;40566;50.006;36.180;2023-07-20T07:14:30;99303.78;;;21.97;50.35
54666;BME280;40566;50.006;36.180;2023-07-20T07:19:31;99296.78;;;22.07;49.68
54666;BME280;40566;50.006;36.180;2023-07-20T07:24:31;99289.47;;;22.11;49.61
54666;BME280;40566;50.006;36.180;2023-07-20T07:29:35;99276.34;;;22.21;49.23
54666;BME280;40566;50.006;36.180;2023-07-20T07:34:36;99274.75;;;22.29;49.09
54666;BME280;40566;50.006;36.180;2023-07-20T07:39:36;99285.75;;;22.34;48.69
54666;BME280;40566;50.006;36.180;2023-07-20T07:44:37;99278.03;;;22.43;47.92
54666;BME280;40566;50.006;36.180;2023-07-20T07:49:37;99283.38;;;22.52;47.92
54666;BME280;40566;50.006;36.180;2023-07-20T07:54:38;99278.59;;;22.67;47.50
54666;BME280;40566;50.006;36.180;2023-07-20T07:59:38;99278.50;;;22.78;47.40
54666;BME280;40566;50.006;36.180;2023-07-20T08:04:39;99288.09;;;22.80;46.97
54666;BME280;40566;50.006;36.180;2023-07-20T08:09:40;99281.44;;;22.85;47.10
54666;BME280;40566;50.006;36.180;2023-07-20T08:14:41;99288.16;;;22.99;46.23
54666;BME280;40566;50.006;36.180;2023-07-20T08:19:42;99295.44;;;23.07;46.52
54666;BME280;40566;50.006;36.180;2023-07-20T08:24:43;99281.44;;;23.16;46.57
54666;BME280;40566;50.006;36.180;2023-07-20T08:29:44;99289.38;;;23.26;45.96
54666;BME280;40566;50.006;36.180;2023-07-20T08:34:44;99289.28;;;23.37;45.02
54666;BME280;40566;50.006;36.180;2023-07-20T08:39:45;99294.44;;;23.48;45.02
54666;BME280;40566;50.006;36.180;2023-07-20T08:44:48;99286.38;;;23.60;44.87
54666;BME280;40566;50.006;36.180;2023-07-20T08:49:49;99300.44;;;23.60;44.67
54666;BME280;40566;50.006;36.180;2023-07-20T08:54:51;99295.69;;;23.73;44.46
54666;BME280;40566;50.006;36.180;2023-07-20T08:59:53;99290.75;;;23.80;43.49
54666;BME280;40566;50.006;36.180;2023-07-20T09:04:54;99299.63;;;23.89;43.93
54666;BME280;40566;50.006;36.180;2023-07-20T09:09:57;99284.91;;;23.96;43.98
54666;BME280;40566;50.006;36.180;2023-07-20T09:14:58;99295.75;;;24.03;44.14
54666;BME280;40566;50.006;36.180;2023-07-20T09:20:03;99286.53;;;24.17;43.87
54666;BME280;40566;50.006;36.180;2023-07-20T09:25:17;99282.06;;;24.27;42.80
54666;BME280;40566;50.006;36.180;2023-07-20T09:30:25;99289.72;;;24.30;43.03
54666;BME280;40566;50.006;36.180;2023-07-20T09:35:25;99292.34;;;24.40;43.16
54666;BME280;40566;50.006;36.180;2023-07-20T09:40:27;99291.66;;;24.47;42.66
54666;BME280;40566;50.006;36.180;2023-07-20T09:45:35;99280.81;;;24.50;42.43
54666;BME280;40566;50.006;36.180;2023-07-20T09:50:41;99273.00;;;24.49;41.80
54666;BME280;40566;50.006;36.180;2023-07-20T09:55:43;99279.00;;;24.61;41.49
54666;BME280;40566;50.006;36.180;2023-07-20T10:00:45;99275.91;;;24.65;41.92
54666;BME280;40566;50.006;36.180;2023-07-20T10:05:57;99266.94;;;24.76;40.88
54666;BME280;40566;50.006;36.180;2023-07-20T10:11:00;99267.00;;;24.94;40.49
54666;BME280;40566;50.006;36.180;2023-07-20T10:16:07;99267.94;;;25.03;40.98
54666;BME280;40566;50.006;36.180;2023-07-20T10:21:10;99279.50;;;25.29;40.20
54666;BME280;40566;50.006;36.180;2023-07-20T10:26:11;99270.00;;;26.08;38.94
54666;BME280;40566;50.006;36.180;2023-07-20T10:31:12;99266.94;;;25.95;39.04
54666;BME280;40566;50.006;36.180;2023-07-20T10:36:13;99265.84;;;25.70;39.97
54666;BME280;40566;50.006;36.180;2023-07-20T10:41:32;99250.31;;;25.57;40.17
54666;BME280;40566;50.006;36.180;2023-07-20T10:51:42;99238.75;;;25.94;39.12
54666;BME280;40566;50.006;36.180;2023-07-20T10:56:44;99228.84;;;25.96;39.18
54666;BME280;40566;50.006;36.180;2023-07-20T11:01:47;99233.06;;;26.33;39.16
54666;BME280;40566;50.006;36.180;2023-07-20T11:06:57;99214.34;;;26.61;38.31
54666;BME280;40566;50.006;36.180;2023-07-20T11:12:16;99220.06;;;26.82;38.12
54666;BME280;40566;50.006;36.180;2023-07-20T11:17:17;99234.63;;;26.70;38.74
54666;BME280;40566;50.006;36.180;2023-07-20T11:22:22;99216.50;;;27.00;37.90
54666;BME280;40566;50.006;36.180;2023-07-20T11:27:23;99215.75;;;27.32;37.57
54666;BME280;40566;50.006;36.180;2023-07-20T11:32:24;99202.97;;;27.36;38.19
54666;BME280;40566;50.006;36.180;2023-07-20T11:37:25;99207.13;;;26.79;38.66
54666;BME280;40566;50.006;36.180;2023-07-20T11:42:26;99216.69;;;26.38;39.66
54666;BME280;40566;50.006;36.180;2023-07-20T11:47:29;99199.00;;;26.46;39.41
54666;BME280;40566;50.006;36.180;2023-07-20T11:52:30;99199.78;;;26.39;39.09
54666;BME280;40566;50.006;36.180;2023-07-20T11:57:31;99204.31;;;26.46;39.13
54666;BME280;40566;50.006;36.180;2023-07-20T12:02:32;99199.50;;;26.50;38.64
54666;BME280;40566;50.006;36.180;2023-07-20T12:07:35;99180.44;;;26.46;37.90
54666;BME280;40566;50.006;36.180;2023-07-20T12:12:41;99189.47;;;26.36;38.03
54666;BME280;40566;50.006;36.180;2023-07-20T12:17:46;99178.41;;;26.40;38.74
54666;BME280;40566;50.006;36.180;2023-07-20T12:22:47;99178.25;;;26.42;38.06
54666;BME280;40566;50.006;36.180;2023-07-20T12:27:49;99171.44;;;26.39;38.17
54666;BME280;40566;50.006;36.180;2023-07-20T12:32:49;99170.41;;;26.58;37.85
54666;BME280;40566;50.006;36.180;2023-07-20T12:37:50;99159.22;;;26.89;37.33
54666;BME280;40566;50.006;36.180;2023-07-20T12:42:51;99156.69;;;26.79;37.23
54666;BME280;40566;50.006;36.180;2023-07-20T12:47:52;99156.50;;;27.40;36.35
54666;BME280;40566;50.006;36.180;2023-07-20T12:52:53;99164.78;;;27.28;36.02
54666;BME280;40566;50.006;36.180;2023-07-20T12:57:53;99155.44;;;27.08;36.80
54666;BME280;40566;50.006;36.180;2023-07-20T13:02:54;99149.31;;;27.07;36.74
54666;BME280;40566;50.006;36.180;2023-07-20T13:07:54;99144.16;;;26.98;36.70
54666;BME280;40566;50.006;36.180;2023-07-20T13:12:55;99137.31;;;26.95;37.20
54666;BME280;40566;50.006;36.180;2023-07-20T13:17:56;99145.78;;;26.99;36.96
54666;BME280;40566;50.006;36.180;2023-07-20T13:22:56;99133.53;;;27.06;37.18
54666;BME280;40566;50.006;36.180;2023-07-20T13:27:57;99134.59;;;27.38;36.43
54666;BME280;40566;50.006;36.180;2023-07-20T13:32:57;99124.97;;;27.53;35.93
54666;BME280;40566;50.006;36.180;2023-07-20T13:37:58;99120.97;;;27.49;35.89
54666;BME280;40566;50.006;36.180;2023-07-20T13:42:59;99110.19;;;27.34;36.51
54666;BME280;40566;50.006;36.180;2023-07-20T13:47:59;99108.63;;;27.07;36.64
54666;BME280;40566;50.006;36.180;2023-07-20T13:53:00;99099.63;;;26.83;36.37
54666;BME280;40566;50.006;36.180;2023-07-20T13:58:03;99096.59;;;26.62;36.94
54666;BME280;40566;50.006;36.180;2023-07-20T14:03:03;99085.94;;;26.45;37.48
54666;BME280;40566;50.006;36.180;2023-07-20T14:08:04;99085.91;;;26.37;38.03
54666;BME280;40566;50.006;36.180;2023-07-20T14:13:07;99086.03;;;26.27;37.98
54666;BME280;40566;50.006;36.180;2023-07-20T14:18:07;99091.47;;;26.18;37.83
54666;BME280;40566;50.006;36.180;2023-07-20T14:23:09;99075.28;;;25.95;38.02
54666;BME280;40566;50.006;36.180;2023-07-20T14:28:10;99077.66;;;25.80;38.00
54666;BME280;40566;50.006;36.180;2023-07-20T14:33:10;99075.31;;;25.77;38.24
54666;BME280;40566;50.006;36.180;2023-07-20T14:38:11;99065.09;;;25.82;37.93
54666;BME280;40566;50.006;36.180;2023-07-20T14:43:12;99073.03;;;25.82;38.42
54666;BME280;40566;50.006;36.180;2023-07-20T14:48:14;99067.09;;;25.88;38.60
54666;BME280;40566;50.006;36.180;2023-07-20T14:53:15;99068.94;;;25.87;38.21
54666;BME280;40566;50.006;36.180;2023-07-20T14:58:15;99057.91;;;25.74;38.57
54666;BME280;40566;50.006;36.180;2023-07-20T15:03:16;99062.34;;;25.65;38.89
54666;BME280;40566;50.006;36.180;2023-07-20T15:08:18;99051.09;;;25.63;38.65
54666;BME280;40566;50.006;36.180;2023-07-20T15:13:19;99048.69;;;25.52;39.20
54666;BME280;40566;50.006;36.180;2023-07-20T15:18:19;99042.97;;;25.39;39.68
54666;BME280;40566;50.006;36.180;2023-07-20T15:23:20;99055.38;;;25.38;39.77
54666;BME280;40566;50.006;36.180;2023-07-20T15:28:22;99041.00;;;25.41;39.63
54666;BME280;40566;50.006;36.180;2023-07-20T15:33:22;99048.25;;;25.39;39.97
54666;BME280;40566;50.006;36.180;2023-07-20T15:38:23;99046.91;;;25.35;40.10
54666;BME280;40566;50.006;36.180;2023-07-20T15:43:24;99055.47;;;25.28;41.69
54666;BME280;40566;50.006;36.180;2023-07-20T15:48:24;99066.25;;;25.17;41.69
54666;BME280;40566;50.006;36.180;2023-07-20T15:53:25;99056.44;;;25.09;41.94
54666;BME280;40566;50.006;36.180;2023-07-20T15:58:25;99048.75;;;24.98;42.36
54666;BME280;40566;50.006;36.180;2023-07-20T16:03:26;99047.69;;;24.91;42.26
54666;BME280;40566;50.006;36.180;2023-07-20T16:08:26;99041.34;;;24.84;43.19
54666;BME280;40566;50.006;36.180;2023-07-20T16:13:27;99047.38;;;24.76;43.09
54666;BME280;40566;50.006;36.180;2023-07-20T16:18:28;99041.03;;;24.69;43.61
54666;BME280;40566;50.006;36.180;2023-07-20T16:23:29;99043.97;;;24.66;44.00
54666;BME280;40566;50.006;36.180;2023-07-20T16:28:29;99036.97;;;24.57;44.40
54666;BME280;40566;50.006;36.180;2023-07-20T16:33:30;99043.94;;;24.48;45.15
54666;BME280;40566;50.006;36.180;2023-07-20T16:38:31;99035.09;;;24.39;45.69
54666;BME280;40566;50.006;36.180;2023-07-20T16:43:31;99044.88;;;24.29;46.16
54666;BME280;40566;50.006;36.180;2023-07-20T16:48:32;99040.63;;;24.18;46.17
54666;BME280;40566;50.006;36.180;2023-07-20T16:53:32;99048.75;;;24.07;47.12
54666;BME280;40566;50.006;36.180;2023-07-20T16:58:33;99054.69;;;23.81;48.81
54666;BME280;40566;50.006;36.180;2023-07-20T17:03:34;99064.16;;;23.64;49.70
54666;BME280;40566;50.006;36.180;2023-07-20T17:08:36;99052.13;;;23.42;50.79
54666;BME280;40566;50.006;36.180;2023-07-20T17:13:36;99061.59;;;23.25;51.35
54666;BME280;40566;50.006;36.180;2023-07-20T17:18:38;99055.50;;;23.15;52.05
54666;BME280;40566;50.006;36.180;2023-07-20T17:23:38;99050.50;;;23.02;52.61
54666;BME280;40566;50.006;36.180;2023-07-20T17:28:39;99058.94;;;22.96;52.85
54666;BME280;40566;50.006;36.180;2023-07-20T17:33:39;99056.84;;;22.90;53.37
54666;BME280;40566;50.006;36.180;2023-07-20T17:38:40;99052.56;;;22.89;53.43
54666;BME280;40566;50.006;36.180;2023-07-20T17:43:41;99064.50;;;22.83;53.79
54666;BME280;40566;50.006;36.180;2023-07-20T17:48:42;99052.56;;;22.79;53.90
54666;BME280;40566;50.006;36.180;2023-07-20T17:53:42;99073.47;;;22.71;54.40
54666;BME280;40566;50.006;36.180;2023-07-20T17:58:43;99078.06;;;22.59;54.88
54666;BME280;40566;50.006;36.180;2023-07-20T18:03:44;99080.69;;;22.49;55.01
54666;BME280;40566;50.006;36.180;2023-07-20T18:08:44;99083.28;;;22.40;55.61
54666;BME280;40566;50.006;36.180;2023-07-20T18:13:45;99079.66;;;22.31;55.82
54666;BME280;40566;50.006;36.180;2023-07-20T18:18:46;99083.78;;;22.24;56.20
54666;BME280;40566;50.006;36.180;2023-07-20T18:23:46;99083.91;;;22.22;56.31
54666;BME280;40566;50.006;36.180;2023-07-20T18:28:47;99092.63;;;22.23;56.41
54666;BME280;40566;50.006;36.180;2023-07-20T18:33:48;99085.44;;;22.25;56.54
54666;BME280;40566;50.006;36.180;2023-07-20T18:38:49;99080.06;;;22.26;56.93
54666;BME280;40566;50.006;36.180;2023-07-20T18:43:49;99081.00;;;22.25;57.23
54666;BME280;40566;50.006;36.180;2023-07-20T18:48:50;99076.25;;;22.19;57.71
54666;BME280;40566;50.006;36.180;2023-07-20T18:53:52;99082.06;;;22.13;58.14
54666;BME280;40566;50.006;36.180;2023-07-20T18:58:54;99081.47;;;22.09;58.55
54666;BME280;40566;50.006;36.180;2023-07-20T19:03:55;99083.94;;;22.01;59.11
54666;BME280;40566;50.006;36.180;2023-07-20T19:08:56;99088.09;;;21.94;59.45
54666;BME280;40566;50.006;36.180;2023-07-20T19:13:56;99089.03;;;21.93;59.90
54666;BME280;40566;50.006;36.180;2023-07-20T19:18:57;99083.91;;;21.91;60.04
54666;BME280;40566;50.006;36.180;2023-07-20T19:23:58;99082.09;;;21.92;60.35
54666;BME280;40566;50.006;36.180;2023-07-20T19:28:58;99069.44;;;21.86;60.75
54666;BME280;40566;50.006;36.180;2023-07-20T19:33:59;99055.88;;;21.81;61.01
54666;BME280;40566;50.006;36.180;2023-07-20T19:39:00;99057.78;;;21.78;61.05
54666;BME280;40566;50.006;36.180;2023-07-20T19:44:01;99074.38;;;21.69;61.72
54666;BME280;40566;50.006;36.180;2023-07-20T19:49:02;99081.09;;;21.62;62.03
54666;BME280;40566;50.006;36.180;2023-07-20T19:54:04;99075.66;;;21.54;62.35
54666;BME280;40566;50.006;36.180;2023-07-20T19:59:04;99071.63;;;21.50;62.71
54666;BME280;40566;50.006;36.180;2023-07-20T20:04:05;99062.91;;;21.49;62.76
54666;BME280;40566;50.006;36.180;2023-07-20T20:09:07;99046.00;;;21.52;62.89
54666;BME280;40566;50.006;36.180;2023-07-20T20:14:08;99046.97;;;21.51;63.30
54666;BME280;40566;50.006;36.180;2023-07-20T20:19:09;99053.19;;;21.50;63.28
54666;BME280;40566;50.006;36.180;2023-07-20T20:24:10;99052.41;;;21.38;63.88
54666;BME280;40566;50.006;36.180;2023-07-20T20:29:10;99047.97;;;21.38;64.24
54666;BME280;40566;50.006;36.180;2023-07-20T20:34:11;99048.69;;;21.41;64.43
54666;BME280;40566;50.006;36.180;2023-07-20T20:39:12;99057.53;;;21.39;64.78
54666;BME280;40566;50.006;36.180;2023-07-20T20:44:13;99051.69;;;21.36;64.95
54666;BME280;40566;50.006;36.180;2023-07-20T20:49:17;99050.16;;;21.33;65.31
54666;BME280;40566;50.006;36.180;2023-07-20T20:54:18;99049.38;;;21.22;66.02
54666;BME280;40566;50.006;36.180;2023-07-20T20:59:19;99063.28;;;21.12;66.55
54666;BME280;40566;50.006;36.180;2023-07-20T21:04:20;99085.66;;;21.07;67.02
54666;BME280;40566;50.006;36.180;2023-07-20T21:09:20;99068.69;;;21.11;67.22
54666;BME280;40566;50.006;36.180;2023-07-20T21:14:21;99067.25;;;21.07;67.72
54666;BME280;40566;50.006;36.180;2023-07-20T21:19:23;99072.31;;;20.98;68.00
54666;BME280;40566;50.006;36.180;2023-07-20T21:24:24;99062.63;;;20.99;68.26
54666;BME280;40566;50.006;36.180;2023-07-20T21:29:24;99064.19;;;21.02;68.34
54666;BME280;40566;50.006;36.180;2023-07-20T21:34:25;99069.66;;;21.10;68.40
54666;BME280;40566;50.006;36.180;2023-07-20T21:39:26;99063.56;;;21.09;68.48
54666;BME280;40566;50.006;36.180;2023-07-20T21:44:26;99051.88;;;21.02;68.97
54666;BME280;40566;50.006;36.180;2023-07-20T21:49:27;99064.91;;;21.04;69.03
54666;BME280;40566;50.006;36.180;2023-07-20T21:54:27;99074.91;;;21.10;69.13
54666;BME280;40566;50.006;36.180;2023-07-20T21:59:28;99067.25;;;21.07;69.23
54666;BME280;40566;50.006;36.180;2023-07-20T22:04:29;99066.13;;;20.99;69.54
54666;BME280;40566;50.006;36.180;2023-07-20T22:09:29;99048.03;;;21.06;69.34
54666;BME280;40566;50.006;36.180;2023-07-20T22:14:30;99043.78;;;20.94;69.78
54666;BME280;40566;50.006;36.180;2023-07-20T22:19:31;99040.31;;;20.93;69.89
54666;BME280;40566;50.006;36.180;2023-07-20T22:24:33;99043.97;;;21.02;69.79
54666;BME280;40566;50.006;36.180;2023-07-20T22:29:35;99031.66;;;21.03;69.59
54666;BME280;40566;50.006;36.180;2023-07-20T22:34:35;99025.56;;;21.02;69.80
54666;BME280;40566;50.006;36.180;2023-07-20T22:39:36;99019.50;;;21.02;69.77
54666;BME280;40566;50.006;36.180;2023-07-20T22:44:37;99001.09;;;21.02;69.56
54666;BME280;40566;50.006;36.180;2023-07-20T22:49:37;98998.44;;;21.02;69.70
54666;BME280;40566;50.006;36.180;2023-07-20T22:54:38;98983.63;;;21.00;69.78
54666;BME280;40566;50.006;36.180;2023-07-20T22:59:38;98972.53;;;20.97;69.90
54666;BME280;40566;50.006;36.180;2023-07-20T23:04:39;98975.16;;;20.97;69.84
54666;BME280;40566;50.006;36.180;2023-07-20T23:09:39;98961.06;;;20.98;70.08
54666;BME280;40566;50.006;36.180;2023-07-20T23:14:41;98963.94;;;20.95;70.26
54666;BME280;40566;50.006;36.180;2023-07-20T23:19:42;98954.50;;;20.92;70.15
54666;BME280;40566;50.006;36.180;2023-07-20T23:24:43;98931.13;;;20.89;70.28
54666;BME280;40566;50.006;36.180;2023-07-20T23:29:44;98937.56;;;20.85;70.28
54666;BME280;40566;50.006;36.180;2023-07-20T23:34:45;98938.56;;;20.84;70.14
54666;BME280;40566;50.006;36.180;2023-07-20T23:39:45;98933.53;;;20.81;70.03
54666;BME280;40566;50.006;36.180;2023-07-20T23:44:46;98928.66;;;20.76;70.04
54666;BME280;40566;50.006;36.180;2023-07-20T23:49:47;98949.69;;;20.76;70.40
54666;BME280;40566;50.006;36.180;2023-07-20T23:54:48;98955.72;;;20.67;70.45
54666;BME280;40566;50.006;36.180;2023-07-20T23:59:49;98934.69;;;20.67;70.36
